createdAt,value
2017-12-05T00:00:43.393Z,10.80
2017-12-05T00:01:49.096Z,11.30
2017-12-05T00:02:55.273Z,17.05
2017-12-05T00:04:01.488Z,9.05
2017-12-05T00:05:07.695Z,12.32
2017-12-05T00:06:14.565Z,10.18
2017-12-05T00:07:21.039Z,7.25
2017-12-05T00:08:27.204Z,8.95
2017-12-05T00:09:33.315Z,12.27
2017-12-05T00:10:39.464Z,11.05
2017-12-05T00:11:45.115Z,7.43
2017-12-05T00:12:50.910Z,13.25
2017-12-05T00:13:59.588Z,10.00
2017-12-05T00:15:07.737Z,8.93
2017-12-05T00:16:13.880Z,6.45
2017-12-05T00:17:20.046Z,12.50
2017-12-05T00:18:25.590Z,11.12
2017-12-05T00:19:31.762Z,9.95
2017-12-05T00:20:37.881Z,8.52
2017-12-05T00:21:43.970Z,6.70
2017-12-05T00:22:50.126Z,8.50
2017-12-05T00:23:55.955Z,9.13
2017-12-05T00:25:01.799Z,8.95
2017-12-05T00:26:07.967Z,7.95
2017-12-05T00:27:13.728Z,10.70
2017-12-05T00:28:19.606Z,8.73
2017-12-05T00:29:25.378Z,14.20
2017-12-05T00:30:31.698Z,7.80
2017-12-05T00:31:37.483Z,9.02
2017-12-05T00:32:43.215Z,8.57
2017-12-05T00:33:49.408Z,8.88
2017-12-05T00:34:55.182Z,8.32
2017-12-05T00:36:06.049Z,9.25
2017-12-05T00:37:15.638Z,9.68
2017-12-05T00:38:21.427Z,9.25
2017-12-05T00:39:27.534Z,8.35
2017-12-05T00:40:33.663Z,7.95
2017-12-05T00:41:45.479Z,11.18
2017-12-05T00:42:50.906Z,8.95
2017-12-05T00:43:56.752Z,12.88
2017-12-05T00:45:04.263Z,9.57
2017-12-05T00:46:10.089Z,6.20
2017-12-05T00:47:15.557Z,10.10
2017-12-05T00:48:20.979Z,9.00
2017-12-05T00:49:27.096Z,7.60
2017-12-05T00:50:33.291Z,11.30
2017-12-05T00:51:39.462Z,14.98
2017-12-05T00:52:45.620Z,7.60
2017-12-05T00:53:51.775Z,9.63
2017-12-05T00:54:57.702Z,6.75
2017-12-05T00:56:04.035Z,8.68
2017-12-05T00:57:10.157Z,9.15
2017-12-05T00:58:16.322Z,8.35
2017-12-05T00:59:22.455Z,9.95
2017-12-05T01:00:28.555Z,6.82
2017-12-05T01:01:34.524Z,8.70
2017-12-05T01:02:40.744Z,12.40
2017-12-05T01:03:46.907Z,10.40
2017-12-05T01:04:53.061Z,9.30
2017-12-05T01:05:59.343Z,12.63
2017-12-05T01:07:05.438Z,6.10
2017-12-05T01:08:11.543Z,9.70
2017-12-05T01:09:17.541Z,9.05
2017-12-05T01:10:29.566Z,9.55
2017-12-05T01:11:35.689Z,9.43
2017-12-05T01:12:41.845Z,5.90
2017-12-05T01:13:48.024Z,11.25
2017-12-05T01:14:54.147Z,8.65
2017-12-05T01:16:00.252Z,7.65
2017-12-05T01:17:06.456Z,13.80
2017-12-05T01:18:12.619Z,8.27
2017-12-05T01:19:18.731Z,9.30
2017-12-05T01:20:25.142Z,8.95
2017-12-05T01:21:31.250Z,8.18
2017-12-05T01:22:37.382Z,11.02
2017-12-05T01:23:43.542Z,8.15
2017-12-05T01:24:49.672Z,6.18
2017-12-05T01:25:55.871Z,6.32
2017-12-05T01:27:02.046Z,7.65
2017-12-05T01:28:13.096Z,8.70
2017-12-05T01:29:19.233Z,7.53
2017-12-05T01:30:25.352Z,11.25
2017-12-05T01:31:31.535Z,9.93
2017-12-05T01:32:37.654Z,11.45
2017-12-05T01:33:43.834Z,7.80
2017-12-05T01:34:50.020Z,7.35
2017-12-05T01:35:56.166Z,7.22
2017-12-05T01:37:02.100Z,7.37
2017-12-05T01:38:08.195Z,6.70
2017-12-05T01:39:14.287Z,10.02
2017-12-05T01:40:20.491Z,7.68
2017-12-05T01:41:25.945Z,11.18
2017-12-05T01:42:31.880Z,11.60
2017-12-05T01:43:37.452Z,12.43
2017-12-05T01:44:43.582Z,13.02
2017-12-05T01:45:49.740Z,10.27
2017-12-05T01:46:55.861Z,10.30
2017-12-05T01:48:05.985Z,10.80
2017-12-05T01:49:12.090Z,16.00
2017-12-05T01:50:17.896Z,7.87
2017-12-05T01:51:24.082Z,7.85
2017-12-05T01:52:30.288Z,10.60
2017-12-05T01:53:35.928Z,7.72
2017-12-05T01:54:42.075Z,10.55
2017-12-05T01:55:48.079Z,12.15
2017-12-05T01:56:54.214Z,9.43
2017-12-05T01:58:00.037Z,10.35
2017-12-05T01:59:05.327Z,11.25
2017-12-05T02:00:10.962Z,8.50
2017-12-05T02:01:16.159Z,11.98
2017-12-05T02:02:21.955Z,17.42
2017-12-05T02:03:27.795Z,13.60
2017-12-05T02:04:33.456Z,11.48
2017-12-05T02:05:39.451Z,11.18
2017-12-05T02:06:44.832Z,9.57
2017-12-05T02:07:50.293Z,10.02
2017-12-05T02:08:55.804Z,12.60
2017-12-05T02:10:01.684Z,9.32
2017-12-05T02:11:07.365Z,13.27
2017-12-05T02:12:13.202Z,13.93
2017-12-05T02:13:18.978Z,14.32
2017-12-05T02:14:24.481Z,10.75
2017-12-05T02:15:30.632Z,11.43
2017-12-05T02:16:39.697Z,10.45
2017-12-05T02:17:45.640Z,9.30
2017-12-05T02:18:51.773Z,9.50
2017-12-05T02:19:57.952Z,9.35
2017-12-05T02:21:03.047Z,12.98
2017-12-05T02:22:08.089Z,11.80
2017-12-05T02:23:14.112Z,12.98
2017-12-05T02:24:20.268Z,13.25
2017-12-05T02:25:26.412Z,12.68
2017-12-05T02:26:32.639Z,11.35
2017-12-05T02:27:38.762Z,14.35
2017-12-05T02:28:44.916Z,9.80
2017-12-05T02:29:51.115Z,10.23
2017-12-05T02:30:57.234Z,8.93
2017-12-05T02:32:03.423Z,13.43
2017-12-05T02:33:10.454Z,12.05
2017-12-05T02:34:16.585Z,7.45
2017-12-05T02:35:22.842Z,9.68
2017-12-05T02:36:29.205Z,9.30
2017-12-05T02:37:35.339Z,10.20
2017-12-05T02:38:41.447Z,10.63
2017-12-05T02:39:47.807Z,13.30
2017-12-05T02:41:16.094Z,11.02
2017-12-05T02:42:23.151Z,11.32
2017-12-05T02:43:28.608Z,10.65
2017-12-05T02:44:34.707Z,9.95
2017-12-05T02:45:40.271Z,11.55
2017-12-05T02:46:45.698Z,9.75
2017-12-05T02:47:51.563Z,9.48
2017-12-05T02:48:56.961Z,10.70
2017-12-05T02:50:02.379Z,8.40
2017-12-05T02:51:08.299Z,10.88
2017-12-05T02:52:13.719Z,9.50
2017-12-05T02:53:19.011Z,10.68
2017-12-05T02:54:27.469Z,10.00
2017-12-05T02:55:32.916Z,9.30
2017-12-05T02:56:38.727Z,10.80
2017-12-05T02:57:44.222Z,7.07
2017-12-05T02:58:49.690Z,9.18
2017-12-05T02:59:55.111Z,9.38
2017-12-05T03:01:00.403Z,10.57
2017-12-05T03:02:06.021Z,10.98
2017-12-05T03:03:11.663Z,9.63
2017-12-05T03:04:16.906Z,9.13
2017-12-05T03:05:22.162Z,9.85
2017-12-05T03:06:27.757Z,8.65
2017-12-05T03:07:33.520Z,8.20
2017-12-05T03:08:39.292Z,10.52
2017-12-05T03:09:44.494Z,8.07
2017-12-05T03:10:50.326Z,11.50
2017-12-05T03:11:55.826Z,9.27
2017-12-05T03:13:01.310Z,14.55
2017-12-05T03:14:07.104Z,14.15
2017-12-05T03:15:12.845Z,9.85
2017-12-05T03:16:18.105Z,9.30
2017-12-05T03:17:24.343Z,10.23
2017-12-05T03:18:29.797Z,9.60
2017-12-05T03:19:35.570Z,11.90
2017-12-05T03:20:41.335Z,20.02
2017-12-05T03:21:47.262Z,9.57
2017-12-05T03:22:53.024Z,9.48
2017-12-05T03:23:59.181Z,9.68
2017-12-05T03:25:10.143Z,12.63
2017-12-05T03:26:16.313Z,11.12
2017-12-05T03:27:22.442Z,6.95
2017-12-05T03:28:28.541Z,10.55
2017-12-05T03:29:34.665Z,9.70
2017-12-05T03:30:40.808Z,13.15
2017-12-05T03:31:46.920Z,10.40
2017-12-05T03:32:57.757Z,8.60
2017-12-05T03:34:03.766Z,7.22
2017-12-05T03:35:19.766Z,7.80
2017-12-05T03:36:25.900Z,10.10
2017-12-05T03:37:32.061Z,10.85
2017-12-05T03:38:38.554Z,8.93
2017-12-05T03:39:45.442Z,8.80
2017-12-05T03:40:51.595Z,8.52
2017-12-05T03:41:57.686Z,7.57
2017-12-05T03:43:03.872Z,10.43
2017-12-05T03:44:09.987Z,9.13
2017-12-05T03:45:16.110Z,6.10
2017-12-05T03:46:24.050Z,4.75
2017-12-05T03:47:31.096Z,8.23
2017-12-05T03:48:37.219Z,10.07
2017-12-05T03:49:43.333Z,6.18
2017-12-05T03:50:49.286Z,8.23
2017-12-05T03:51:55.378Z,6.18
2017-12-05T03:53:02.088Z,5.07
2017-12-05T03:54:11.138Z,7.07
2017-12-05T03:55:17.226Z,4.68
2017-12-05T03:56:23.351Z,6.07
2017-12-05T03:57:29.520Z,5.40
2017-12-05T03:58:35.422Z,6.10
2017-12-05T03:59:41.563Z,4.65
2017-12-05T04:00:47.690Z,8.00
2017-12-05T04:01:53.611Z,6.22
2017-12-05T04:02:59.720Z,8.75
2017-12-05T04:04:05.852Z,5.20
2017-12-05T04:05:11.775Z,6.03
2017-12-05T04:06:17.889Z,5.97
2017-12-05T04:07:24.002Z,5.40
2017-12-05T04:08:30.102Z,8.88
2017-12-05T04:09:36.216Z,9.48
2017-12-05T04:10:42.316Z,8.20
2017-12-05T04:11:48.464Z,7.55
2017-12-05T04:12:54.577Z,6.87
2017-12-05T04:14:00.683Z,7.43
2017-12-05T04:15:06.791Z,8.43
2017-12-05T04:16:19.043Z,9.35
2017-12-05T04:17:25.155Z,8.18
2017-12-05T04:18:31.268Z,6.78
2017-12-05T04:19:37.352Z,5.45
2017-12-05T04:20:43.490Z,13.55
2017-12-05T04:21:49.658Z,10.13
2017-12-05T04:22:55.792Z,5.32
2017-12-05T04:24:02.051Z,9.82
2017-12-05T04:25:08.255Z,6.82
2017-12-05T04:26:14.383Z,8.23
2017-12-05T04:27:20.514Z,8.63
2017-12-05T04:28:26.649Z,6.75
2017-12-05T04:29:32.785Z,8.00
2017-12-05T04:30:38.938Z,7.65
2017-12-05T04:31:45.036Z,5.32
2017-12-05T04:32:51.121Z,9.85
2017-12-05T04:33:56.570Z,8.93
2017-12-05T04:35:02.699Z,7.62
2017-12-05T04:36:08.548Z,9.07
2017-12-05T04:37:14.586Z,7.95
2017-12-05T04:38:21.089Z,6.90
2017-12-05T04:39:27.170Z,14.75
2017-12-05T04:40:33.435Z,8.70
2017-12-05T04:41:39.236Z,11.98
2017-12-05T04:42:45.331Z,9.40
2017-12-05T04:43:51.455Z,15.48
2017-12-05T04:44:57.278Z,8.32
2017-12-05T04:46:03.379Z,15.70
2017-12-05T04:47:09.511Z,10.88
2017-12-05T04:48:16.231Z,9.23
2017-12-05T04:49:21.987Z,12.00
2017-12-05T04:50:28.144Z,10.88
2017-12-05T04:51:33.965Z,8.85
2017-12-05T04:52:39.701Z,8.82
2017-12-05T04:53:45.857Z,9.55
2017-12-05T04:54:51.820Z,10.55
2017-12-05T04:55:57.606Z,5.95
2017-12-05T04:57:02.878Z,8.57
2017-12-05T04:58:09.030Z,7.18
2017-12-05T04:59:15.255Z,8.48
2017-12-05T05:00:20.659Z,9.55
2017-12-05T05:01:26.253Z,9.45
2017-12-05T05:02:31.688Z,9.07
2017-12-05T05:03:37.468Z,5.80
2017-12-05T05:04:43.444Z,9.70
2017-12-05T05:05:49.543Z,7.30
2017-12-05T05:06:55.633Z,8.60
2017-12-05T05:08:01.768Z,8.02
2017-12-05T05:09:12.072Z,10.55
2017-12-05T05:10:18.206Z,8.13
2017-12-05T05:11:24.119Z,8.05
2017-12-05T05:12:30.010Z,7.57
2017-12-05T05:13:37.505Z,7.45
2017-12-05T05:14:44.225Z,9.40
2017-12-05T05:15:50.402Z,9.65
2017-12-05T05:16:56.388Z,10.50
2017-12-05T05:18:02.511Z,10.80
2017-12-05T05:19:08.469Z,6.15
2017-12-05T05:20:14.661Z,9.93
2017-12-05T05:21:20.276Z,11.02
2017-12-05T05:22:26.203Z,6.57
2017-12-05T05:23:32.113Z,6.28
2017-12-05T05:24:38.258Z,9.05
2017-12-05T05:25:44.349Z,8.82
2017-12-05T05:26:50.555Z,8.00
2017-12-05T05:27:56.306Z,13.80
2017-12-05T05:29:02.204Z,7.53
2017-12-05T05:30:07.903Z,6.93
2017-12-05T05:31:14.028Z,6.65
2017-12-05T05:32:20.113Z,8.32
2017-12-05T05:33:26.047Z,9.68
2017-12-05T05:34:32.542Z,9.70
2017-12-05T05:35:38.642Z,8.80
2017-12-05T05:36:44.706Z,5.62
2017-12-05T05:37:50.641Z,7.75
2017-12-05T05:38:56.738Z,6.75
2017-12-05T05:40:06.266Z,6.10
2017-12-05T05:41:12.499Z,8.70
2017-12-05T05:42:18.606Z,10.20
2017-12-05T05:43:24.556Z,12.23
2017-12-05T05:44:30.717Z,7.15
2017-12-05T05:45:36.691Z,4.40
2017-12-05T05:46:42.823Z,11.15
2017-12-05T05:47:48.934Z,10.43
2017-12-05T05:48:54.926Z,11.75
2017-12-05T05:50:01.081Z,8.68
2017-12-05T05:51:07.242Z,6.07
2017-12-05T05:52:13.344Z,9.43
2017-12-05T05:53:19.553Z,12.77
2017-12-05T05:54:25.637Z,9.07
2017-12-05T05:55:31.757Z,9.95
2017-12-05T05:56:37.948Z,11.18
2017-12-05T05:57:44.103Z,9.45
2017-12-05T05:58:50.275Z,9.30
2017-12-05T05:59:56.394Z,8.05
2017-12-05T06:01:02.505Z,9.90
2017-12-05T06:02:10.460Z,10.15
2017-12-05T06:03:16.384Z,11.07
2017-12-05T06:04:22.522Z,9.85
2017-12-05T06:05:28.512Z,13.52
2017-12-05T06:06:34.647Z,11.77
2017-12-05T06:07:40.922Z,13.82
2017-12-05T06:08:47.039Z,9.00
2017-12-05T06:09:53.138Z,10.30
2017-12-05T06:10:59.322Z,15.68
2017-12-05T06:12:05.475Z,10.70
2017-12-05T06:13:11.582Z,12.32
2017-12-05T06:14:17.678Z,9.27
2017-12-05T06:15:23.852Z,11.73
2017-12-05T06:16:29.952Z,11.20
2017-12-05T06:17:36.041Z,10.02
2017-12-05T06:18:42.191Z,11.52
2017-12-05T06:19:52.194Z,11.35
2017-12-05T06:21:01.232Z,14.25
2017-12-05T06:22:07.350Z,12.52
2017-12-05T06:23:13.446Z,7.45
2017-12-05T06:24:19.631Z,10.30
2017-12-05T06:25:25.781Z,12.13
2017-12-05T06:26:31.912Z,13.65
2017-12-05T06:27:38.054Z,20.62
2017-12-05T06:28:44.216Z,11.93
2017-12-05T06:29:50.313Z,13.60
2017-12-05T06:30:56.410Z,11.30
2017-12-05T06:32:02.571Z,14.43
2017-12-05T06:33:08.724Z,11.07
2017-12-05T06:34:14.882Z,9.98
2017-12-05T06:35:21.069Z,13.48
2017-12-05T06:36:27.174Z,13.88
2017-12-05T06:37:33.111Z,10.30
2017-12-05T06:38:39.843Z,15.18
2017-12-05T06:39:45.984Z,15.15
2017-12-05T06:40:52.083Z,14.70
2017-12-05T06:41:58.034Z,18.12
2017-12-05T06:43:04.223Z,18.27
2017-12-05T06:44:10.417Z,11.12
2017-12-05T06:45:16.327Z,11.90
2017-12-05T06:46:22.338Z,13.65
2017-12-05T06:47:28.240Z,15.40
2017-12-05T06:48:34.359Z,14.13
2017-12-05T06:49:40.173Z,15.48
2017-12-05T06:50:45.613Z,15.00
2017-12-05T06:51:51.068Z,14.13
2017-12-05T06:52:56.343Z,12.75
2017-12-05T06:54:01.765Z,13.38
2017-12-05T06:55:07.013Z,15.48
2017-12-05T06:56:13.486Z,13.07
2017-12-05T06:57:18.768Z,16.90
2017-12-05T06:58:24.058Z,16.10
2017-12-05T06:59:29.290Z,12.68
2017-12-05T07:00:34.712Z,14.30
2017-12-05T07:01:39.917Z,12.02
2017-12-05T07:02:45.721Z,14.70
2017-12-05T07:03:51.206Z,11.82
2017-12-05T07:04:56.664Z,12.50
2017-12-05T07:06:02.076Z,14.93
2017-12-05T07:07:07.587Z,13.93
2017-12-05T07:08:13.481Z,12.90
2017-12-05T07:09:19.281Z,14.85
2017-12-05T07:10:24.694Z,14.82
2017-12-05T07:11:35.032Z,13.65
2017-12-05T07:12:40.660Z,10.75
2017-12-05T07:13:49.169Z,13.82
2017-12-05T07:14:54.599Z,10.38
2017-12-05T07:16:00.046Z,14.23
2017-12-05T07:17:05.581Z,13.88
2017-12-05T07:18:11.364Z,13.60
2017-12-05T07:19:16.813Z,13.68
2017-12-05T07:20:22.291Z,12.77
2017-12-05T07:21:35.968Z,10.10
2017-12-05T07:22:42.050Z,11.68
2017-12-05T07:23:47.544Z,12.73
2017-12-05T07:24:53.123Z,13.45
2017-12-05T07:25:58.422Z,15.68
2017-12-05T07:27:04.008Z,12.95
2017-12-05T07:28:09.535Z,16.48
2017-12-05T07:29:15.009Z,13.98
2017-12-05T07:30:20.446Z,16.05
2017-12-05T07:31:26.195Z,14.60
2017-12-05T07:32:31.636Z,17.35
2017-12-05T07:33:37.069Z,15.85
2017-12-05T07:34:42.548Z,17.23
2017-12-05T07:35:48.067Z,12.55
2017-12-05T07:36:53.630Z,13.30
2017-12-05T07:37:59.072Z,15.13
2017-12-05T07:39:04.544Z,16.87
2017-12-05T07:40:10.522Z,17.62
2017-12-05T07:41:15.938Z,16.08
2017-12-05T07:42:21.389Z,14.27
2017-12-05T07:43:26.847Z,13.77
2017-12-05T07:44:32.660Z,17.80
2017-12-05T07:45:38.162Z,16.45
2017-12-05T07:46:43.809Z,14.40
2017-12-05T07:47:49.543Z,21.52
2017-12-05T07:48:55.040Z,15.82
2017-12-05T07:50:00.832Z,16.33
2017-12-05T07:51:06.273Z,15.32
2017-12-05T07:52:11.540Z,15.38
2017-12-05T07:53:16.779Z,15.20
2017-12-05T07:54:22.699Z,16.20
2017-12-05T07:55:27.916Z,15.40
2017-12-05T07:56:33.438Z,20.25
2017-12-05T07:57:39.669Z,16.73
2017-12-05T07:58:45.755Z,17.37
2017-12-05T07:59:51.677Z,17.92
2017-12-05T08:00:57.189Z,19.77
2017-12-05T08:02:02.963Z,16.95
2017-12-05T08:03:09.171Z,18.60
2017-12-05T08:04:14.656Z,18.17
2017-12-05T08:05:20.120Z,16.35
2017-12-05T08:06:25.397Z,18.02
2017-12-05T08:07:30.462Z,17.75
2017-12-05T08:08:35.980Z,17.42
2017-12-05T08:09:41.274Z,16.12
2017-12-05T08:10:46.714Z,18.75
2017-12-05T08:11:52.316Z,15.40
2017-12-05T08:12:57.778Z,22.33
2017-12-05T08:14:03.223Z,16.85
2017-12-05T08:15:08.667Z,16.98
2017-12-05T08:16:13.945Z,22.30
2017-12-05T08:17:19.494Z,19.00
2017-12-05T08:18:24.706Z,20.27
2017-12-05T08:19:30.122Z,18.48
2017-12-05T08:20:35.568Z,22.52
2017-12-05T08:21:41.131Z,20.77
2017-12-05T08:22:46.675Z,21.73
2017-12-05T08:23:52.090Z,20.60
2017-12-05T08:24:57.338Z,23.85
2017-12-05T08:26:02.632Z,18.55
2017-12-05T08:27:08.106Z,25.65
2017-12-05T08:28:13.439Z,19.17
2017-12-05T08:29:19.022Z,22.83
2017-12-05T08:30:24.437Z,22.48
2017-12-05T08:31:29.669Z,24.20
2017-12-05T08:32:35.094Z,25.67
2017-12-05T08:33:40.580Z,24.98
2017-12-05T08:34:46.030Z,29.17
2017-12-05T08:35:51.473Z,32.75
2017-12-05T08:36:56.829Z,33.63
2017-12-05T08:38:02.374Z,31.45
2017-12-05T08:39:07.870Z,32.97
2017-12-05T08:40:13.341Z,24.00
2017-12-05T08:41:18.775Z,27.90
2017-12-05T08:42:24.268Z,25.37
2017-12-05T08:43:30.066Z,23.87
2017-12-05T08:44:35.824Z,23.65
2017-12-05T08:45:41.461Z,23.02
2017-12-05T08:46:46.955Z,25.05
2017-12-05T08:47:52.759Z,16.23
2017-12-05T08:48:58.002Z,21.92
2017-12-05T08:50:03.762Z,22.65
2017-12-05T08:51:09.222Z,23.33
2017-12-05T08:52:14.654Z,29.58
2017-12-05T08:53:20.103Z,28.80
2017-12-05T08:54:25.526Z,25.40
2017-12-05T08:55:30.766Z,21.98
2017-12-05T08:56:39.375Z,20.83
2017-12-05T08:57:45.171Z,21.30
2017-12-05T08:58:50.612Z,16.60
2017-12-05T08:59:56.050Z,19.73
2017-12-05T09:01:01.544Z,17.37
2017-12-05T09:02:06.998Z,21.90
2017-12-05T09:03:13.126Z,18.40
2017-12-05T09:04:19.398Z,15.85
2017-12-05T09:05:24.894Z,17.60
2017-12-05T09:06:30.455Z,22.55
2017-12-05T09:07:35.672Z,16.73
2017-12-05T09:08:41.136Z,17.52
2017-12-05T09:09:46.623Z,19.00
2017-12-05T09:10:52.859Z,16.67
2017-12-05T09:11:58.677Z,17.95
2017-12-05T09:13:04.168Z,17.33
2017-12-05T09:14:09.955Z,14.65
2017-12-05T09:15:15.416Z,16.60
2017-12-05T09:16:21.799Z,17.20
2017-12-05T09:17:29.006Z,15.18
2017-12-05T09:18:35.227Z,20.45
2017-12-05T09:19:42.474Z,16.23
2017-12-05T09:20:49.013Z,16.05
2017-12-05T09:22:02.333Z,14.13
2017-12-05T09:23:08.953Z,15.10
2017-12-05T09:24:15.417Z,18.35
2017-12-05T09:25:22.008Z,13.68
2017-12-05T09:26:28.734Z,17.27
2017-12-05T09:27:34.891Z,16.23
2017-12-05T09:28:40.569Z,17.83
2017-12-05T09:29:45.796Z,17.42
2017-12-05T09:30:51.222Z,18.77
2017-12-05T09:32:03.050Z,13.48
2017-12-05T09:33:08.553Z,14.90
2017-12-05T09:34:14.042Z,13.88
2017-12-05T09:35:20.424Z,15.90
2017-12-05T09:36:30.098Z,14.98
2017-12-05T09:37:35.633Z,13.15
2017-12-05T09:38:40.864Z,16.17
2017-12-05T09:39:46.390Z,14.13
2017-12-05T09:40:51.856Z,16.50
2017-12-05T09:41:57.323Z,12.57
2017-12-05T09:43:02.766Z,20.45
2017-12-05T09:44:08.245Z,16.75
2017-12-05T09:45:13.547Z,18.42
2017-12-05T09:46:18.987Z,16.52
2017-12-05T09:47:24.410Z,14.35
2017-12-05T09:48:35.960Z,12.57
2017-12-05T09:49:41.484Z,13.02
2017-12-05T09:50:46.901Z,12.95
2017-12-05T09:51:52.194Z,12.20
2017-12-05T09:52:57.997Z,17.17
2017-12-05T09:54:03.402Z,13.95
2017-12-05T09:55:09.177Z,15.95
2017-12-05T09:56:14.584Z,16.65
2017-12-05T09:57:20.086Z,14.07
2017-12-05T09:58:25.546Z,15.95
2017-12-05T09:59:30.791Z,16.77
2017-12-05T10:00:37.204Z,12.73
2017-12-05T10:01:42.497Z,14.52
2017-12-05T10:02:47.919Z,15.27
2017-12-05T10:03:53.361Z,11.88
2017-12-05T10:04:58.703Z,17.45
2017-12-05T10:06:04.134Z,14.50
2017-12-05T10:07:09.607Z,13.95
2017-12-05T10:08:15.024Z,15.38
2017-12-05T10:09:20.511Z,16.12
2017-12-05T10:10:25.940Z,13.98
2017-12-05T10:11:31.377Z,16.25
2017-12-05T10:12:37.191Z,15.13
2017-12-05T10:13:42.456Z,18.30
2017-12-05T10:14:48.868Z,16.92
2017-12-05T10:15:54.371Z,15.60
2017-12-05T10:16:59.861Z,21.58
2017-12-05T10:18:05.330Z,17.92
2017-12-05T10:19:10.571Z,16.40
2017-12-05T10:20:16.098Z,14.25
2017-12-05T10:21:21.374Z,14.63
2017-12-05T10:22:26.871Z,18.30
2017-12-05T10:23:32.099Z,12.68
2017-12-05T10:24:37.543Z,13.27
2017-12-05T10:25:42.832Z,11.77
2017-12-05T10:26:48.066Z,13.30
2017-12-05T10:27:53.520Z,14.68
2017-12-05T10:28:58.999Z,16.00
2017-12-05T10:30:04.415Z,12.95
2017-12-05T10:31:09.940Z,15.02
2017-12-05T10:32:15.773Z,13.35
2017-12-05T10:33:21.196Z,15.23
2017-12-05T10:34:26.645Z,15.82
2017-12-05T10:35:32.038Z,12.57
2017-12-05T10:36:37.453Z,14.80
2017-12-05T10:37:42.887Z,17.62
2017-12-05T10:38:53.658Z,15.38
2017-12-05T10:39:59.169Z,13.52
2017-12-05T10:41:04.641Z,12.63
2017-12-05T10:42:09.924Z,14.52
2017-12-05T10:43:15.439Z,13.77
2017-12-05T10:44:20.732Z,14.77
2017-12-05T10:45:25.977Z,13.45
2017-12-05T10:46:31.497Z,15.40
2017-12-05T10:47:36.926Z,14.10
2017-12-05T10:48:42.227Z,13.23
2017-12-05T10:49:47.438Z,14.07
2017-12-05T10:50:52.649Z,16.15
2017-12-05T10:51:58.124Z,18.73
2017-12-05T10:53:03.543Z,15.82
2017-12-05T10:54:08.975Z,14.93
2017-12-05T10:55:14.234Z,13.65
2017-12-05T10:56:19.500Z,16.50
2017-12-05T10:57:25.130Z,16.40
2017-12-05T10:58:31.101Z,15.30
2017-12-05T10:59:36.569Z,17.60
2017-12-05T11:00:42.433Z,18.70
2017-12-05T11:01:48.023Z,17.80
2017-12-05T11:02:54.148Z,16.58
2017-12-05T11:04:00.010Z,17.67
2017-12-05T11:05:05.816Z,16.33
2017-12-05T11:06:12.534Z,14.45
2017-12-05T11:07:18.660Z,14.57
2017-12-05T11:08:24.441Z,16.95
2017-12-05T11:09:30.259Z,17.45
2017-12-05T11:10:36.384Z,15.20
2017-12-05T11:11:41.631Z,16.10
2017-12-05T11:12:47.389Z,19.62
2017-12-05T11:13:53.382Z,17.33
2017-12-05T11:14:58.871Z,19.35
2017-12-05T11:16:04.321Z,18.30
2017-12-05T11:17:10.089Z,19.62
2017-12-05T11:18:16.242Z,19.02
2017-12-05T11:19:22.414Z,16.87
2017-12-05T11:20:27.989Z,16.58
2017-12-05T11:21:33.285Z,20.48
2017-12-05T11:22:39.109Z,14.70
2017-12-05T11:23:45.938Z,17.35
2017-12-05T11:24:51.901Z,21.10
2017-12-05T11:25:57.816Z,18.85
2017-12-05T11:27:03.393Z,19.30
2017-12-05T11:28:12.031Z,18.73
2017-12-05T11:29:17.708Z,20.23
2017-12-05T11:30:27.801Z,18.45
2017-12-05T11:31:33.910Z,22.20
2017-12-05T11:32:40.019Z,14.65
2017-12-05T11:33:45.602Z,15.40
2017-12-05T11:34:51.778Z,17.92
2017-12-05T11:35:57.510Z,22.92
2017-12-05T11:37:03.320Z,16.52
2017-12-05T11:38:09.165Z,20.73
2017-12-05T11:39:15.349Z,17.95
2017-12-05T11:40:21.504Z,16.83
2017-12-05T11:41:27.615Z,22.90
2017-12-05T11:42:33.540Z,19.12
2017-12-05T11:43:39.686Z,18.58
2017-12-05T11:44:45.876Z,16.92
2017-12-05T11:45:51.620Z,18.52
2017-12-05T11:46:57.635Z,18.95
2017-12-05T11:48:03.153Z,17.17
2017-12-05T11:49:09.098Z,17.52
2017-12-05T11:50:14.896Z,21.85
2017-12-05T11:51:28.896Z,16.05
2017-12-05T11:52:35.033Z,21.00
2017-12-05T11:53:41.119Z,18.67
2017-12-05T11:54:46.155Z,19.17
2017-12-05T11:55:52.326Z,20.08
2017-12-05T11:56:58.265Z,19.65
2017-12-05T11:58:04.059Z,17.33
2017-12-05T11:59:09.547Z,19.65
2017-12-05T12:00:14.791Z,18.55
2017-12-05T12:01:20.738Z,16.33
2017-12-05T12:02:26.917Z,18.40
2017-12-05T12:03:33.068Z,16.12
2017-12-05T12:04:38.815Z,19.23
2017-12-05T12:05:44.307Z,15.40
2017-12-05T12:06:53.421Z,16.12
2017-12-05T12:07:59.434Z,22.35
2017-12-05T12:09:06.856Z,23.38
2017-12-05T12:10:13.507Z,18.85
2017-12-05T12:11:19.663Z,20.55
2017-12-05T12:12:26.171Z,19.80
2017-12-05T12:13:32.272Z,19.55
2017-12-05T12:14:38.454Z,18.35
2017-12-05T12:15:44.587Z,20.83
2017-12-05T12:16:50.706Z,19.50
2017-12-05T12:17:56.722Z,19.55
2017-12-05T12:19:02.885Z,16.30
2017-12-05T12:20:09.053Z,18.85
2017-12-05T12:21:15.193Z,15.38
2017-12-05T12:22:21.347Z,15.70
2017-12-05T12:23:27.494Z,18.58
2017-12-05T12:24:33.324Z,20.40
2017-12-05T12:25:39.095Z,17.77
2017-12-05T12:26:45.202Z,17.40
2017-12-05T12:27:51.453Z,16.62
2017-12-05T12:28:58.345Z,14.75
2017-12-05T12:30:04.462Z,21.98
2017-12-05T12:31:10.610Z,18.70
2017-12-05T12:32:16.774Z,18.25
2017-12-05T12:33:22.926Z,16.60
2017-12-05T12:34:29.084Z,18.17
2017-12-05T12:35:35.277Z,21.75
2017-12-05T12:36:41.543Z,15.48
2017-12-05T12:37:47.691Z,15.35
2017-12-05T12:38:53.814Z,19.87
2017-12-05T12:39:59.926Z,18.65
2017-12-05T12:41:05.961Z,22.85
2017-12-05T12:42:12.075Z,16.80
2017-12-05T12:43:18.198Z,17.75
2017-12-05T12:44:23.983Z,16.35
2017-12-05T12:45:30.145Z,19.83
2017-12-05T12:46:37.317Z,17.95
2017-12-05T12:47:43.439Z,24.27
2017-12-05T12:48:50.161Z,16.45
2017-12-05T12:49:57.597Z,18.40
2017-12-05T12:51:05.027Z,20.15
2017-12-05T12:52:12.292Z,22.15
2017-12-05T12:53:18.881Z,18.23
2017-12-05T12:54:25.375Z,17.83
2017-12-05T12:55:31.310Z,20.62
2017-12-05T12:56:37.433Z,19.77
2017-12-05T12:57:45.890Z,20.70
2017-12-05T12:58:53.844Z,17.62
2017-12-05T13:00:01.337Z,19.05
2017-12-05T13:01:08.760Z,19.05
2017-12-05T13:02:15.123Z,15.95
2017-12-05T13:03:21.666Z,19.35
2017-12-05T13:04:28.229Z,16.27
2017-12-05T13:05:35.165Z,18.98
2017-12-05T13:06:41.730Z,17.30
2017-12-05T13:07:47.838Z,16.62
2017-12-05T13:08:54.019Z,19.40
2017-12-05T13:10:00.233Z,15.02
2017-12-05T13:11:06.424Z,17.75
2017-12-05T13:12:12.509Z,16.58
2017-12-05T13:13:18.711Z,18.40
2017-12-05T13:14:24.825Z,16.08
2017-12-05T13:15:30.941Z,17.67
2017-12-05T13:16:37.061Z,18.95
2017-12-05T13:17:46.180Z,16.75
2017-12-05T13:18:52.336Z,17.33
2017-12-05T13:19:58.541Z,15.68
2017-12-05T13:21:04.708Z,15.40
2017-12-05T13:22:10.888Z,15.65
2017-12-05T13:23:16.711Z,17.67
2017-12-05T13:24:22.884Z,19.10
2017-12-05T13:25:29.067Z,15.38
2017-12-05T13:26:35.200Z,16.52
2017-12-05T13:27:41.348Z,16.30
2017-12-05T13:28:47.205Z,18.83
2017-12-05T13:29:53.359Z,18.48
2017-12-05T13:30:59.541Z,16.70
2017-12-05T13:32:05.784Z,16.15
2017-12-05T13:33:12.109Z,16.52
2017-12-05T13:34:17.873Z,15.90
2017-12-05T13:35:24.953Z,16.50
2017-12-05T13:36:33.028Z,15.57
2017-12-05T13:37:40.272Z,19.85
2017-12-05T13:38:47.423Z,16.27
2017-12-05T13:39:54.209Z,16.60
2017-12-05T13:41:01.696Z,16.45
2017-12-05T13:42:09.327Z,15.90
2017-12-05T13:43:16.155Z,17.23
2017-12-05T13:44:23.254Z,17.02
2017-12-05T13:45:29.766Z,17.92
2017-12-05T13:46:36.277Z,18.35
2017-12-05T13:47:42.703Z,14.18
2017-12-05T13:48:49.255Z,15.27
2017-12-05T13:49:55.619Z,18.25
2017-12-05T13:51:02.384Z,16.98
2017-12-05T13:52:08.894Z,17.90
2017-12-05T13:53:15.863Z,16.80
2017-12-05T13:54:21.981Z,16.65
2017-12-05T13:55:28.165Z,15.50
2017-12-05T13:56:35.609Z,16.75
2017-12-05T13:57:43.555Z,16.85
2017-12-05T13:58:51.002Z,17.10
2017-12-05T13:59:58.456Z,21.40
2017-12-05T14:01:05.870Z,18.35
2017-12-05T14:02:13.738Z,14.80
2017-12-05T14:03:21.579Z,14.63
2017-12-05T14:04:28.360Z,17.52
2017-12-05T14:05:35.597Z,15.95
2017-12-05T14:06:42.544Z,15.98
2017-12-05T14:07:50.267Z,17.52
2017-12-05T14:08:57.392Z,17.77
2017-12-05T14:10:04.373Z,15.70
2017-12-05T14:11:11.341Z,15.68
2017-12-05T14:12:18.239Z,15.15
2017-12-05T14:13:26.534Z,15.73
2017-12-05T14:14:33.297Z,17.55
2017-12-05T14:15:39.649Z,14.75
2017-12-05T14:16:45.833Z,17.70
2017-12-05T14:17:53.445Z,18.70
2017-12-05T14:18:59.371Z,18.20
2017-12-05T14:20:05.370Z,17.55